Helvecia, Argentina
Current Conditions -  °F | °C
As of 2:00 PM on Monday 24 Nov 2014 (Local Time) from SUSO Reporting Station
Broken Clouds Broken Clouds  
Wind Chill: 88°   Ceiling: 6700
Heat Index: 89°   Visibility: 6mi
Dew Point: 64°   Wind: 12mph
Humidity: 46%   Direction: 340°NNW
Pressure: 29.71"   Gusts: NA
Location:  31.1°S, 60.08°W
Report Text: SUSO 241700Z 34010KT 9999 FEW030 BKN067 31/18 Q1006
Loading
Personal Weather Stations






























Interactive Weather Map New forecast layout! Learn more

10-Day Weather Forecast

Advertisements
Track Severe Weather on mobile